createdAt,value
2022-09-05T00:00:02.669Z,9.20
2022-09-05T00:02:49.030Z,9.20
2022-09-05T00:05:32.337Z,9.30
2022-09-05T00:08:28.729Z,9.20
2022-09-05T00:11:43.079Z,9.20
2022-09-05T00:14:34.416Z,9.20
2022-09-05T00:18:00.243Z,9.20
2022-09-05T00:24:22.268Z,9.20
2022-09-05T00:24:28.688Z,9.20
2022-09-05T00:26:36.269Z,9.10
2022-09-05T00:29:12.955Z,9.20
2022-09-05T00:31:55.439Z,9.30
2022-09-05T00:34:53.768Z,9.30
2022-09-05T00:37:45.483Z,9.30
2022-09-05T00:40:57.812Z,9.20
2022-09-05T00:43:43.407Z,9.20
2022-09-05T00:46:32.084Z,9.20
2022-09-05T00:49:34.364Z,9.20
2022-09-05T00:52:13.637Z,9.20
2022-09-05T00:54:58.554Z,9.20
2022-09-05T00:57:37.510Z,9.30
2022-09-05T01:00:25.789Z,9.10
2022-09-05T01:03:31.033Z,9.00
2022-09-05T01:06:29.652Z,9.00
2022-09-05T01:09:07.988Z,9.00
2022-09-05T01:11:56.301Z,8.90
2022-09-05T01:14:45.095Z,9.00
2022-09-05T01:17:56.688Z,8.90
2022-09-05T01:20:50.791Z,8.90
2022-09-05T01:23:37.486Z,8.80
2022-09-05T01:26:04.800Z,8.70
2022-09-05T01:29:18.434Z,8.70
2022-09-05T01:31:50.560Z,8.70
2022-09-05T01:34:39.206Z,8.60
2022-09-05T01:37:34.053Z,8.60
2022-09-05T01:40:14.698Z,8.60
2022-09-05T01:42:54.812Z,8.60
2022-09-05T01:46:00.087Z,8.50
2022-09-05T01:48:47.981Z,8.40
2022-09-05T01:51:40.275Z,8.40
2022-09-05T01:54:41.847Z,8.20
2022-09-05T01:57:37.408Z,8.40
2022-09-05T02:00:30.764Z,8.50
2022-09-05T02:03:08.748Z,8.60
2022-09-05T02:05:59.841Z,8.60
2022-09-05T02:08:59.381Z,8.60
2022-09-05T02:11:58.907Z,8.80
2022-09-05T02:14:44.431Z,8.70
2022-09-05T02:17:33.532Z,8.70
2022-09-05T02:20:29.137Z,8.70
2022-09-05T02:23:04.675Z,8.80
2022-09-05T02:26:20.953Z,8.80
2022-09-05T02:29:08.770Z,8.80
2022-09-05T02:31:48.775Z,8.80
2022-09-05T02:34:32.267Z,8.80
2022-09-05T02:38:52.398Z,8.90
2022-09-05T02:45:01.138Z,8.80
2022-09-05T02:45:06.291Z,8.80
2022-09-05T02:46:48.167Z,8.90
2022-09-05T02:51:04.162Z,9.10
2022-09-05T02:57:23.743Z,9.10
2022-09-05T02:57:36.696Z,9.00
2022-09-05T02:59:09.639Z,9.00
2022-09-05T03:02:01.472Z,8.70
2022-09-05T03:05:04.253Z,8.70
2022-09-05T03:07:55.748Z,8.90
2022-09-05T03:10:54.538Z,8.60
2022-09-05T03:14:05.624Z,9.00
2022-09-05T03:17:00.524Z,8.90
2022-09-05T03:19:47.036Z,8.90
2022-09-05T03:22:14.413Z,8.70
2022-09-05T03:24:55.968Z,8.70
2022-09-05T03:27:29.530Z,8.70
2022-09-05T03:29:59.995Z,8.70
2022-09-05T03:32:43.077Z,8.80
2022-09-05T03:35:32.858Z,8.80
2022-09-05T03:38:38.143Z,8.90
2022-09-05T03:41:21.645Z,8.90
2022-09-05T03:44:01.778Z,8.80
2022-09-05T03:46:35.250Z,8.90
2022-09-05T03:50:59.265Z,8.90
2022-09-05T03:57:12.694Z,9.00
2022-09-05T03:57:16.116Z,9.20
2022-09-05T03:59:06.967Z,9.00
2022-09-05T04:03:14.489Z,9.00
2022-09-05T04:08:07.159Z,9.00
2022-09-05T04:08:32.128Z,8.90
2022-09-05T04:11:24.251Z,9.00
2022-09-05T04:14:06.649Z,8.80
2022-09-05T04:16:48.358Z,9.10
2022-09-05T04:19:28.642Z,9.00
2022-09-05T04:22:36.652Z,9.10
2022-09-05T04:25:24.749Z,8.90
2022-09-05T04:28:41.328Z,8.90
2022-09-05T04:31:36.965Z,8.90
2022-09-05T04:34:17.435Z,9.00
2022-09-05T04:36:47.105Z,9.00
2022-09-05T04:39:21.053Z,9.00
2022-09-05T04:41:53.126Z,8.90
2022-09-05T04:44:27.746Z,9.20
2022-09-05T04:47:10.413Z,9.00
2022-09-05T04:49:57.923Z,9.00
2022-09-05T04:53:06.933Z,9.10
2022-09-05T04:55:51.021Z,9.10
2022-09-05T04:58:21.780Z,9.50
2022-09-05T05:06:03.004Z,9.20
2022-09-05T05:06:14.282Z,9.30
2022-09-05T05:07:23.545Z,10.90
2022-09-05T05:11:04.550Z,9.60
2022-09-05T05:17:59.310Z,9.80
2022-09-05T05:18:14.074Z,9.70
2022-09-05T05:19:01.442Z,9.30
2022-09-05T05:21:34.696Z,9.30
2022-09-05T05:24:16.115Z,9.60
2022-09-05T05:26:56.972Z,9.20
2022-09-05T05:29:40.407Z,9.20
2022-09-05T05:32:15.617Z,10.30
2022-09-05T05:35:32.635Z,9.20
2022-09-05T05:38:23.449Z,9.50
2022-09-05T05:41:24.835Z,9.60
2022-09-05T05:43:53.047Z,9.70
2022-09-05T05:46:56.869Z,9.70
2022-09-05T05:49:39.668Z,9.80
2022-09-05T05:52:46.771Z,10.10
2022-09-05T05:55:52.298Z,10.50
2022-09-05T05:58:32.635Z,10.10
2022-09-05T06:01:37.664Z,10.00
2022-09-05T06:04:34.161Z,10.30
2022-09-05T06:07:45.109Z,10.40
2022-09-05T06:14:56.249Z,11.10
2022-09-05T06:15:02.366Z,10.30
2022-09-05T06:17:45.757Z,10.20
2022-09-05T06:22:05.370Z,10.00
2022-09-05T06:23:54.660Z,10.30
2022-09-05T06:26:50.876Z,10.20
2022-09-05T06:30:03.204Z,10.10
2022-09-05T06:33:19.234Z,11.80
2022-09-05T06:36:04.446Z,10.30
2022-09-05T06:38:54.028Z,10.30
2022-09-05T06:41:39.137Z,10.70
2022-09-05T06:44:42.141Z,10.90
2022-09-05T06:47:23.840Z,10.60
2022-09-05T06:50:24.075Z,10.80
2022-09-05T06:59:14.773Z,10.90
2022-09-05T07:02:11.022Z,10.60
2022-09-05T07:14:28.849Z,11.20
2022-09-05T07:46:39.928Z,11.70
2022-09-05T07:56:59.386Z,11.70
2022-09-05T07:57:51.718Z,11.70
2022-09-05T08:00:26.661Z,12.00
2022-09-05T08:03:15.276Z,12.10
2022-09-05T08:05:49.101Z,11.90
2022-09-05T08:08:21.078Z,11.40
2022-09-05T08:11:24.808Z,11.50
2022-09-05T08:14:40.707Z,11.60
2022-09-05T08:16:58.487Z,11.70
2022-09-05T08:19:32.142Z,12.00
2022-09-05T08:22:01.830Z,11.80
2022-09-05T08:24:41.995Z,11.90
2022-09-05T08:27:26.919Z,12.00
2022-09-05T08:30:25.656Z,11.90
2022-09-05T08:33:11.875Z,11.80
2022-09-05T08:36:02.965Z,11.90
2022-09-05T08:38:40.579Z,12.30
2022-09-05T08:41:33.428Z,11.90
2022-09-05T08:46:39.704Z,11.90
2022-09-05T08:48:08.331Z,12.00
2022-09-05T08:51:07.810Z,12.10
2022-09-05T08:54:01.904Z,12.00
2022-09-05T09:00:19.306Z,11.80
2022-09-05T09:03:18.761Z,12.20
2022-09-05T09:06:14.069Z,12.10
2022-09-05T09:09:05.358Z,12.20
2022-09-05T09:11:50.416Z,12.40
2022-09-05T09:14:43.286Z,12.30
2022-09-05T09:17:17.400Z,12.20
2022-09-05T09:20:03.380Z,12.00
2022-09-05T09:23:07.291Z,12.00
2022-09-05T09:26:17.238Z,12.20
2022-09-05T09:35:25.176Z,12.80
2022-09-05T09:38:31.207Z,12.60
2022-09-05T09:41:18.150Z,13.10
2022-09-05T09:44:26.643Z,12.70
2022-09-05T09:46:56.534Z,11.70
2022-09-05T09:55:32.824Z,12.50
2022-09-05T09:58:17.053Z,12.90
2022-09-05T10:13:08.097Z,12.40
2022-09-05T10:15:42.819Z,12.50
2022-09-05T10:18:34.240Z,12.50
2022-09-05T10:21:39.424Z,12.50
2022-09-05T10:24:39.070Z,12.50
2022-09-05T10:27:45.735Z,12.40
2022-09-05T10:31:10.014Z,12.20
2022-09-05T10:35:08.944Z,12.40
2022-09-05T10:36:39.337Z,12.50
2022-09-05T10:39:13.861Z,12.50
2022-09-05T10:41:51.978Z,13.00
2022-09-05T10:44:42.413Z,12.70
2022-09-05T10:47:29.859Z,12.60
2022-09-05T10:50:28.750Z,12.50
2022-09-05T10:53:11.575Z,12.40
2022-09-05T10:56:07.506Z,12.50
2022-09-05T11:00:38.422Z,12.90
2022-09-05T11:02:38.533Z,14.40
2022-09-05T11:05:27.551Z,12.50
2022-09-05T11:13:50.438Z,12.60
2022-09-05T11:16:34.555Z,12.60
2022-09-05T11:19:47.176Z,12.90
2022-09-05T11:22:24.047Z,12.50
2022-09-05T11:24:58.093Z,12.60
2022-09-05T11:30:31.015Z,12.50
2022-09-05T11:39:48.695Z,12.70
2022-09-05T11:39:58.916Z,12.50
2022-09-05T11:40:09.611Z,12.60
2022-09-05T11:42:29.140Z,12.80
2022-09-05T11:45:07.576Z,12.80
2022-09-05T11:48:28.451Z,12.80
2022-09-05T11:50:58.734Z,13.00
2022-09-05T11:53:59.796Z,12.60
2022-09-05T11:57:31.921Z,12.70
2022-09-05T12:00:31.225Z,12.80
2022-09-05T12:03:57.446Z,13.00
2022-09-05T12:06:49.511Z,13.00
2022-09-05T12:09:33.482Z,13.00
2022-09-05T12:12:39.529Z,12.70
2022-09-05T12:15:29.683Z,12.70
2022-09-05T12:18:21.584Z,12.60
2022-09-05T12:21:25.796Z,11.80
2022-09-05T12:24:57.325Z,12.90
2022-09-05T12:27:39.426Z,12.70
2022-09-05T12:29:54.337Z,12.70
2022-09-05T12:33:45.577Z,12.60
2022-09-05T12:40:36.862Z,12.70
2022-09-05T12:40:59.850Z,12.60
2022-09-05T12:42:14.633Z,12.40
2022-09-05T12:45:09.144Z,12.60
2022-09-05T12:48:07.779Z,12.70
2022-09-05T12:51:00.421Z,12.80
2022-09-05T12:53:51.616Z,12.90
2022-09-05T12:58:04.111Z,13.00
2022-09-05T13:03:03.545Z,13.30
2022-09-05T13:03:13.272Z,13.00
2022-09-05T13:05:16.522Z,12.70
2022-09-05T13:07:58.450Z,12.30
2022-09-05T13:14:53.293Z,12.80
2022-09-05T13:14:56.210Z,12.70
2022-09-05T13:16:29.552Z,13.00
2022-09-05T13:19:07.543Z,12.80
2022-09-05T13:21:40.186Z,12.80
2022-09-05T13:24:14.829Z,12.60
2022-09-05T13:26:54.091Z,12.50
2022-09-05T13:31:44.081Z,12.60
2022-09-05T13:38:03.241Z,12.90
2022-09-05T13:38:13.700Z,12.70
2022-09-05T13:38:56.195Z,12.80
2022-09-05T13:41:30.933Z,12.50
2022-09-05T13:44:25.168Z,12.60
2022-09-05T13:47:28.970Z,12.60
2022-09-05T13:50:13.918Z,12.40
2022-09-05T13:52:47.143Z,12.70
2022-09-05T13:55:43.354Z,12.60
2022-09-05T13:58:26.983Z,12.70
2022-09-05T14:01:17.738Z,12.90
2022-09-05T14:04:05.661Z,12.90
2022-09-05T14:06:52.064Z,12.70
2022-09-05T14:10:06.658Z,12.80
2022-09-05T14:12:42.249Z,13.10
2022-09-05T14:15:35.858Z,13.00
2022-09-05T14:18:21.498Z,13.10
2022-09-05T14:21:16.088Z,13.10
2022-09-05T14:23:55.986Z,12.70
2022-09-05T14:26:33.659Z,12.80
2022-09-05T14:29:09.453Z,13.10
2022-09-05T14:37:44.465Z,12.90
2022-09-05T14:37:54.762Z,12.80
2022-09-05T14:38:09.491Z,12.90
2022-09-05T14:41:19.427Z,13.00
2022-09-05T14:43:57.045Z,12.50
2022-09-05T14:46:38.724Z,12.50
2022-09-05T14:49:29.086Z,12.50
2022-09-05T14:51:58.387Z,12.50
2022-09-05T15:02:39.120Z,12.40
2022-09-05T15:02:58.246Z,12.20
2022-09-05T15:03:12.798Z,12.50
2022-09-05T15:05:46.707Z,12.50
2022-09-05T15:08:33.255Z,12.60
2022-09-05T15:12:16.063Z,12.60
2022-09-05T15:14:04.850Z,12.50
2022-09-05T15:16:43.622Z,12.50
2022-09-05T15:19:12.123Z,13.00
2022-09-05T15:21:41.509Z,12.30
2022-09-05T15:24:21.509Z,12.30
2022-09-05T15:26:54.672Z,12.40
2022-09-05T15:29:30.689Z,12.20
2022-09-05T15:32:21.566Z,12.40
2022-09-05T15:34:55.532Z,12.40
2022-09-05T15:37:38.082Z,12.30
2022-09-05T15:40:22.050Z,12.20
2022-09-05T15:43:00.870Z,12.50
2022-09-05T15:45:32.156Z,12.90
2022-09-05T15:48:24.157Z,12.30
2022-09-05T15:50:57.816Z,12.60
2022-09-05T15:53:31.662Z,12.60
2022-09-05T15:56:09.767Z,12.50
2022-09-05T15:58:53.085Z,12.50
2022-09-05T16:01:58.153Z,12.30
2022-09-05T16:10:26.828Z,12.30
2022-09-05T16:10:36.109Z,12.30
2022-09-05T16:10:42.608Z,12.40
2022-09-05T16:13:15.858Z,12.40
2022-09-05T16:21:02.411Z,12.40
2022-09-05T16:23:25.481Z,12.40
2022-09-05T16:23:29.140Z,12.40
2022-09-05T16:24:58.031Z,12.60
2022-09-05T16:27:53.638Z,12.40
2022-09-05T16:30:29.503Z,12.50
2022-09-05T16:33:15.000Z,12.50
2022-09-05T16:36:16.567Z,12.30
2022-09-05T16:39:01.929Z,12.30
2022-09-05T16:42:46.936Z,12.20
2022-09-05T16:45:29.931Z,12.20
2022-09-05T16:48:12.219Z,12.20
2022-09-05T16:50:58.035Z,12.20
2022-09-05T16:53:50.799Z,12.00
2022-09-05T16:56:33.972Z,12.30
2022-09-05T16:59:08.908Z,12.10
2022-09-05T17:01:40.053Z,12.00
2022-09-05T17:04:25.054Z,11.90
2022-09-05T17:07:02.708Z,12.00
2022-09-05T17:09:41.092Z,11.70
2022-09-05T17:12:17.168Z,11.80
2022-09-05T17:15:09.225Z,11.90
2022-09-05T17:18:22.182Z,11.60
2022-09-05T17:20:56.990Z,12.00
2022-09-05T17:28:03.833Z,11.80
2022-09-05T17:29:32.962Z,11.80
2022-09-05T17:32:47.557Z,11.70
2022-09-05T17:35:33.109Z,11.70
2022-09-05T17:38:11.550Z,11.60
2022-09-05T17:40:43.093Z,11.60
2022-09-05T17:43:28.723Z,11.40
2022-09-05T17:46:20.428Z,11.50
2022-09-05T17:49:17.619Z,11.80
2022-09-05T17:52:02.265Z,11.30
2022-09-05T17:54:33.814Z,11.20
2022-09-05T17:57:27.475Z,11.10
2022-09-05T18:00:33.562Z,11.40
2022-09-05T18:03:01.117Z,11.10
2022-09-05T18:05:55.091Z,10.90
2022-09-05T18:08:44.933Z,11.00
2022-09-05T18:11:37.678Z,11.10
2022-09-05T18:17:36.299Z,11.20
2022-09-05T18:22:41.996Z,11.00
2022-09-05T18:25:30.587Z,11.00
2022-09-05T18:28:32.274Z,11.10
2022-09-05T18:31:41.618Z,11.00
2022-09-05T18:34:15.939Z,10.90
2022-09-05T18:36:48.827Z,10.60
2022-09-05T18:39:29.427Z,10.50
2022-09-05T18:42:04.249Z,10.30
2022-09-05T18:44:59.688Z,10.40
2022-09-05T18:47:51.183Z,10.30
2022-09-05T18:50:32.852Z,10.40
2022-09-05T18:53:09.976Z,10.50
2022-09-05T18:56:20.828Z,10.20
2022-09-05T18:59:11.078Z,10.20
2022-09-05T19:01:45.704Z,10.00
2022-09-05T19:04:39.172Z,10.20
2022-09-05T19:07:24.035Z,9.80
2022-09-05T19:10:35.165Z,9.70
2022-09-05T19:13:16.533Z,9.50
2022-09-05T19:16:34.838Z,9.70
2022-09-05T19:19:24.620Z,9.50
2022-09-05T19:22:37.255Z,9.40
2022-09-05T19:24:46.183Z,9.30
2022-09-05T19:31:58.129Z,9.30
2022-09-05T19:36:52.937Z,9.20
2022-09-05T19:36:53.754Z,9.00
2022-09-05T19:37:06.262Z,9.10
2022-09-05T19:40:53.482Z,9.00
2022-09-05T19:47:31.210Z,8.90
2022-09-05T19:47:40.061Z,8.80
2022-09-05T19:47:56.508Z,8.70
2022-09-05T19:50:13.417Z,8.60
2022-09-05T19:52:41.177Z,8.60
2022-09-05T19:55:20.772Z,8.70
2022-09-05T19:58:05.288Z,8.70
2022-09-05T20:00:41.188Z,8.50
2022-09-05T20:03:09.121Z,8.60
2022-09-05T20:05:41.889Z,8.60
2022-09-05T20:08:13.661Z,8.60
2022-09-05T20:10:41.508Z,8.50
2022-09-05T20:13:24.084Z,8.60
2022-09-05T20:15:52.874Z,8.60
2022-09-05T20:18:26.974Z,8.20
2022-09-05T20:21:06.046Z,8.80
2022-09-05T20:23:36.267Z,8.70
2022-09-05T20:26:04.068Z,9.00
2022-09-05T20:28:36.891Z,8.90
2022-09-05T20:31:27.351Z,9.00
2022-09-05T20:34:04.118Z,9.00
2022-09-05T20:43:11.115Z,9.00
2022-09-05T20:43:24.001Z,9.20
2022-09-05T20:43:31.859Z,8.70
2022-09-05T20:45:54.487Z,8.70
2022-09-05T20:54:16.438Z,8.70
2022-09-05T20:54:20.957Z,8.70
2022-09-05T20:54:36.086Z,8.70
2022-09-05T20:57:23.242Z,8.60
2022-09-05T20:59:51.004Z,9.40
2022-09-05T21:02:25.006Z,8.70
2022-09-05T21:05:06.822Z,8.70
2022-09-05T21:08:06.783Z,9.00
2022-09-05T21:10:55.797Z,9.50
2022-09-05T21:13:35.524Z,9.60
2022-09-05T21:16:13.230Z,8.80
2022-09-05T21:18:43.959Z,8.80
2022-09-05T21:21:30.281Z,9.50
2022-09-05T21:24:08.984Z,8.90
2022-09-05T21:26:50.419Z,8.70
2022-09-05T21:29:27.340Z,8.70
2022-09-05T21:32:01.889Z,8.60
2022-09-05T21:34:33.550Z,8.70
2022-09-05T21:37:07.884Z,10.30
2022-09-05T21:39:59.123Z,8.70
2022-09-05T21:44:59.143Z,9.40
2022-09-05T21:47:43.102Z,8.70
2022-09-05T21:48:15.667Z,8.50
2022-09-05T21:50:59.954Z,8.50
2022-09-05T21:59:14.415Z,8.30
2022-09-05T21:59:33.665Z,8.80
2022-09-05T21:59:45.967Z,8.90
2022-09-05T22:02:17.154Z,8.90
2022-09-05T22:04:45.151Z,9.00
2022-09-05T22:07:14.574Z,9.10
2022-09-05T22:09:42.630Z,8.80
2022-09-05T22:12:30.114Z,8.50
2022-09-05T22:15:02.493Z,8.40
2022-09-05T22:17:47.322Z,8.30
2022-09-05T22:20:18.855Z,8.00
2022-09-05T22:22:56.440Z,8.20
2022-09-05T22:25:33.001Z,8.20
2022-09-05T22:28:08.712Z,8.30
2022-09-05T22:30:37.052Z,8.30
2022-09-05T22:33:05.973Z,8.10
2022-09-05T22:35:36.454Z,8.10
2022-09-05T22:38:13.320Z,8.00
2022-09-05T22:40:42.307Z,8.00
2022-09-05T22:43:11.198Z,7.90
2022-09-05T22:45:39.793Z,7.80
2022-09-05T22:48:14.856Z,7.90
2022-09-05T22:50:43.099Z,7.90
2022-09-05T22:53:10.728Z,7.90
2022-09-05T22:55:41.373Z,8.00
2022-09-05T22:58:12.920Z,8.20
2022-09-05T23:00:41.969Z,8.10
2022-09-05T23:03:09.640Z,8.10
2022-09-05T23:05:38.128Z,8.20
2022-09-05T23:08:06.982Z,8.40
2022-09-05T23:10:36.381Z,8.00
2022-09-05T23:13:09.338Z,8.50
2022-09-05T23:15:37.849Z,8.60
2022-09-05T23:18:06.084Z,9.40
2022-09-05T23:20:36.789Z,8.30
2022-09-05T23:23:06.330Z,8.20
2022-09-05T23:25:35.197Z,8.40
2022-09-05T23:28:07.691Z,8.50
2022-09-05T23:30:36.814Z,8.60
2022-09-05T23:33:07.609Z,8.50
2022-09-05T23:35:36.197Z,8.50
2022-09-05T23:38:09.366Z,8.20
2022-09-05T23:40:37.509Z,9.30
2022-09-05T23:43:05.498Z,8.50
2022-09-05T23:45:33.389Z,8.40
2022-09-05T23:48:01.273Z,8.40
2022-09-05T23:50:29.601Z,8.30
2022-09-05T23:52:57.277Z,8.20
2022-09-05T23:55:24.816Z,8.10
2022-09-05T23:57:58.294Z,8.20
